Time;durP1;ratioP1;P1;durP2;ratioP2;P2;SDS_P1;SDS_P2;PMS_P1;PMS_P2;Temp;Humidity;BMP_temperature;BMP_pressure;BME280_temperature;BME280_humidity;BME280_pressure;Samples;Min_cycle;Max_cycle;Signal;HPM_P1;HPM_P2
2022/01/10 00:00:52;;;;;;;35.00;6.28;;;;;;;2.81;100.00;100987.88;4736648;30;20071;-83
2022/01/10 00:03:23;;;;;;;27.63;5.88;;;;;;;2.84;100.00;100986.25;4710492;30;20056;-83
2022/01/10 00:05:51;;;;;;;30.05;5.93;;;;;;;2.86;100.00;100991.53;4739602;30;20039;-83
2022/01/10 00:08:19;;;;;;;33.22;5.85;;;;;;;2.88;100.00;101001.16;4716732;30;20055;-84
2022/01/10 00:10:50;;;;;;;27.30;5.63;;;;;;;2.89;100.00;101005.56;4725452;30;20048;-82
2022/01/10 00:13:19;;;;;;;24.23;4.78;;;;;;;2.92;100.00;100999.56;4738727;30;20064;-83
2022/01/10 00:15:48;;;;;;;18.27;5.60;;;;;;;2.92;100.00;101012.56;4750777;30;20105;-84
2022/01/10 00:18:17;;;;;;;21.35;5.00;;;;;;;2.95;100.00;101019.59;4721257;30;20060;-85
2022/01/10 00:20:48;;;;;;;27.58;5.68;;;;;;;2.95;100.00;101015.31;4735442;30;20070;-83
2022/01/10 00:23:17;;;;;;;24.45;5.05;;;;;;;2.96;100.00;101022.25;4746095;30;20518;-84
2022/01/10 00:25:45;;;;;;;28.98;6.05;;;;;;;2.97;100.00;101028.34;4695673;30;20070;-82
2022/01/10 00:28:14;;;;;;;31.48;6.38;;;;;;;2.98;100.00;101031.00;4690941;30;20052;-82
2022/01/10 00:30:43;;;;;;;27.63;5.95;;;;;;;2.96;100.00;101030.06;4688367;30;20063;-82
2022/01/10 00:33:14;;;;;;;;;;;;;;;2.95;100.00;101030.00;4685354;30;20060;-82
2022/01/10 00:35:42;;;;;;;24.92;5.82;;;;;;;2.93;100.00;101030.84;4738250;30;19925;-82
2022/01/10 00:38:10;;;;;;;20.60;6.15;;;;;;;2.93;100.00;101037.78;4714311;30;20503;-83
2022/01/10 00:40:40;;;;;;;28.77;5.32;;;;;;;2.91;100.00;101040.31;4728742;30;20255;-83
2022/01/10 00:43:17;;;;;;;29.25;6.40;;;;;;;2.91;100.00;101044.63;4749132;30;20047;-84
2022/01/10 00:45:46;;;;;;;22.00;5.50;;;;;;;2.92;100.00;101051.63;4733803;30;20067;-82
2022/01/10 00:48:14;;;;;;;34.58;6.25;;;;;;;2.91;100.00;101058.56;4701315;30;20535;-83
2022/01/10 00:50:43;;;;;;;25.08;5.60;;;;;;;2.90;100.00;101066.28;4717246;30;20066;-83
2022/01/10 00:53:11;;;;;;;19.65;5.13;;;;;;;2.86;100.00;101069.63;4718272;30;20047;-83
2022/01/10 00:55:40;;;;;;;30.10;4.95;;;;;;;2.81;100.00;101069.44;4759802;30;20060;-82
2022/01/10 00:58:09;;;;;;;24.17;5.97;;;;;;;2.77;100.00;101070.13;4721148;30;20060;-83
2022/01/10 01:00:37;;;;;;;26.40;6.38;;;;;;;2.75;100.00;101070.91;4719288;30;20048;-83
2022/01/10 01:03:06;;;;;;;30.13;6.22;;;;;;;2.70;100.00;101074.25;4738906;30;20044;-83
2022/01/10 01:05:39;;;;;;;28.52;6.25;;;;;;;2.64;100.00;101076.56;4715125;30;20054;-82
2022/01/10 01:08:10;;;;;;;32.25;6.32;;;;;;;2.61;100.00;101084.28;4761338;30;20035;-83
2022/01/10 01:24:04;;;;;;;35.35;6.85;;;;;;;2.28;100.00;101102.03;4765710;30;20530;-82
2022/01/10 01:26:33;;;;;;;28.92;6.40;;;;;;;2.23;100.00;101114.84;4756180;29;20059;-83
2022/01/10 01:29:03;;;;;;;24.50;6.22;;;;;;;2.19;100.00;101117.25;4749570;30;20503;-83
2022/01/10 01:31:32;;;;;;;32.40;7.20;;;;;;;2.15;100.00;101118.81;4761968;30;20055;-82
2022/01/10 01:34:01;;;;;;;27.90;7.22;;;;;;;2.09;100.00;101129.84;4755477;30;20410;-82
2022/01/10 01:36:31;;;;;;;23.27;6.70;;;;;;;2.04;100.00;101130.47;4717865;30;20451;-83
2022/01/10 01:39:05;;;;;;;34.03;7.28;;;;;;;2.00;100.00;101137.25;4719705;30;20523;-84
2022/01/10 01:41:37;;;;;;;26.58;7.18;;;;;;;1.94;100.00;101139.59;4735330;30;20279;-82
2022/01/10 01:44:06;;;;;;;29.75;7.15;;;;;;;1.89;100.00;101152.41;4714759;30;20060;-82
2022/01/10 01:46:37;;;;;;;29.77;7.45;;;;;;;1.83;100.00;101157.31;4735284;30;20280;-82
2022/01/10 01:49:06;;;;;;;33.40;8.97;;;;;;;1.78;100.00;101158.84;4719920;30;20537;-82
2022/01/10 01:51:36;;;;;;;39.87;8.13;;;;;;;1.75;100.00;101161.31;4735773;30;20046;-84
2022/01/10 01:54:05;;;;;;;25.85;8.35;;;;;;;1.73;100.00;101176.81;4747062;30;20058;-83
2022/01/10 01:56:34;;;;;;;40.78;8.60;;;;;;;1.70;100.00;101178.41;4719464;30;20157;-82
2022/01/10 01:59:05;;;;;;;31.15;7.88;;;;;;;1.67;100.00;101178.28;4726651;30;20499;-83
2022/01/10 02:01:34;;;;;;;;;;;;;;;1.64;100.00;101191.13;4744221;30;20534;-82
2022/01/10 02:04:02;;;;;;;29.05;7.10;;;;;;;1.60;100.00;101190.09;4724775;30;20305;-83
2022/01/10 02:06:31;;;;;;;28.25;7.55;;;;;;;1.56;100.00;101194.25;4701515;30;20044;-82
2022/01/10 02:09:02;;;;;;;21.45;6.68;;;;;;;1.53;100.00;101201.94;4720457;30;20048;-83
2022/01/10 02:11:33;;;;;;;26.33;6.45;;;;;;;1.51;100.00;101207.84;4731517;30;20535;-82
2022/01/10 02:14:04;;;;;;;19.63;6.18;;;;;;;1.46;100.00;101212.84;4739192;30;20051;-83
2022/01/10 02:16:44;;;;;;;34.80;7.38;;;;;;;1.45;100.00;101216.25;4705911;30;20056;-82
2022/01/10 02:19:27;;;;;;;25.98;6.63;;;;;;;1.40;100.00;101217.78;4763047;30;20044;-83
2022/01/10 02:21:58;;;;;;;;;;;;;;;1.37;100.00;101222.81;4681681;30;20055;-82
2022/01/10 02:24:30;;;;;;;26.42;6.25;;;;;;;1.35;100.00;101232.25;4753638;30;19976;-83
2022/01/10 02:27:01;;;;;;;20.88;6.65;;;;;;;1.33;100.00;101233.88;4687485;30;20067;-83
2022/01/10 02:29:36;;;;;;;26.08;6.70;;;;;;;1.30;100.00;101232.00;4722796;30;20040;-82
2022/01/10 02:32:05;;;;;;;24.83;6.75;;;;;;;1.30;100.00;101241.50;4704676;30;20052;-82
2022/01/10 02:34:33;;;;;;;32.13;7.45;;;;;;;1.28;100.00;101238.84;4722322;30;20093;-82
2022/01/10 02:37:02;;;;;;;29.45;7.32;;;;;;;1.26;100.00;101250.84;4716072;30;20403;-83
2022/01/10 02:39:36;;;;;;;23.60;6.72;;;;;;;1.24;100.00;101251.63;4677634;30;20060;-82
2022/01/10 02:42:05;;;;;;;32.22;6.15;;;;;;;1.21;100.00;101260.16;4716446;30;20056;-83
2022/01/10 02:44:36;;;;;;;24.42;6.30;;;;;;;1.17;100.00;101266.91;4707342;30;20056;-82
2022/01/10 02:47:05;;;;;;;24.58;6.93;;;;;;;1.14;100.00;101274.53;4684034;30;20044;-83
2022/01/10 02:49:37;;;;;;;26.85;6.93;;;;;;;1.13;100.00;101264.97;4703295;30;20368;-82
2022/01/10 02:52:06;;;;;;;;;;;;;;;1.11;100.00;101274.38;4744009;30;20056;-83
2022/01/10 02:54:35;;;;;;;36.40;7.47;;;;;;;1.10;100.00;101267.44;4705691;30;20188;-82
2022/01/10 02:57:12;;;;;;;15.88;5.88;;;;;;;1.07;100.00;101275.06;4718835;30;20145;-82
2022/01/10 02:59:42;;;;;;;27.50;6.20;;;;;;;1.05;100.00;101275.81;4713412;30;20403;-82
2022/01/10 03:02:11;;;;;;;31.38;6.70;;;;;;;1.02;100.00;101291.22;4717374;30;20511;-81
2022/01/10 03:04:41;;;;;;;25.77;6.43;;;;;;;0.99;100.00;101289.38;4703943;30;20048;-83
2022/01/10 03:07:15;;;;;;;21.80;6.45;;;;;;;0.97;100.00;101306.56;4702712;30;20044;-83
2022/01/10 03:09:44;;;;;;;36.05;7.78;;;;;;;0.94;100.00;101301.22;4706021;30;20045;-82
2022/01/10 03:12:12;;;;;;;27.60;6.70;;;;;;;0.90;100.00;101302.78;4710521;30;20052;-84
2022/01/10 03:14:42;;;;;;;24.83;6.53;;;;;;;0.85;100.00;101319.84;4708913;30;20048;-83
2022/01/10 03:17:12;;;;;;;27.98;5.88;;;;;;;0.82;100.00;101327.47;4741385;30;20055;-82
2022/01/10 03:19:42;;;;;;;28.92;7.13;;;;;;;0.80;100.00;101325.63;4721887;30;20047;-83
2022/01/10 03:22:11;;;;;;;20.80;6.07;;;;;;;0.78;100.00;101322.94;4752188;30;20059;-83
2022/01/10 03:24:40;;;;;;;18.20;5.93;;;;;;;0.77;100.00;101332.41;4727215;30;20044;-83
2022/01/10 03:27:09;;;;;;;25.63;6.45;;;;;;;0.76;100.00;101346.19;4737197;30;20052;-82
2022/01/10 03:29:38;;;;;;;28.35;6.93;;;;;;;0.72;100.00;101344.28;4733897;30;20511;-83
2022/01/10 03:32:07;;;;;;;29.85;6.63;;;;;;;0.69;100.00;101346.69;4733893;30;20056;-82
2022/01/10 03:34:36;;;;;;;24.10;6.50;;;;;;;0.66;100.00;101343.97;4723651;30;20067;-84
2022/01/10 03:37:06;;;;;;;31.80;7.43;;;;;;;0.67;100.00;101352.63;4775044;30;20051;-82
2022/01/10 03:39:37;;;;;;;26.25;6.95;;;;;;;0.66;100.00;101349.16;4687368;30;20057;-82
2022/01/10 03:42:08;;;;;;;24.58;6.75;;;;;;;0.66;100.00;101354.34;4763194;30;20059;-82
2022/01/10 03:44:36;;;;;;;19.88;6.32;;;;;;;0.65;100.00;101360.31;4765466;30;20063;-83
2022/01/10 03:47:05;;;;;;;21.88;7.18;;;;;;;0.64;100.00;101352.47;4739309;30;20055;-82
2022/01/10 03:49:34;;;;;;;15.68;6.85;;;;;;;0.65;100.00;101368.09;4741002;30;20039;-84
2022/01/10 03:52:03;;;;;;;21.67;7.50;;;;;;;0.64;100.00;101371.50;4766454;30;20271;-81
2022/01/10 03:54:32;;;;;;;22.02;7.13;;;;;;;0.61;100.00;101379.13;4748353;30;20509;-83
2022/01/10 03:57:01;;;;;;;22.30;7.22;;;;;;;0.61;100.00;101381.72;4701531;30;20168;-83
2022/01/10 03:59:29;;;;;;;29.05;7.10;;;;;;;0.60;100.00;101392.03;4746084;30;20048;-84
2022/01/10 04:01:58;;;;;;;27.35;7.93;;;;;;;0.56;100.00;101389.25;4748314;30;20588;-83
2022/01/10 04:04:28;;;;;;;29.42;7.35;;;;;;;0.51;100.00;101395.94;4753725;30;20050;-83
2022/01/10 04:06:56;;;;;;;29.52;7.63;;;;;;;0.48;100.00;101398.34;4757332;30;20277;-82
2022/01/10 04:09:25;;;;;;;22.58;7.57;;;;;;;0.45;100.00;101411.13;4722448;30;20419;-83
2022/01/10 04:11:53;;;;;;;25.83;7.38;;;;;;;0.42;100.00;101413.59;4705009;30;27236;-83
2022/01/10 04:14:22;;;;;;;25.65;7.63;;;;;;;0.42;100.00;101420.44;4764539;30;20060;-82
2022/01/10 04:16:51;;;;;;;28.15;8.07;;;;;;;0.42;100.00;101439.53;4694439;30;20051;-82
2022/01/10 04:19:20;;;;;;;37.80;8.50;;;;;;;0.41;100.00;101435.13;4765980;30;20059;-81
2022/01/10 04:21:48;;;;;;;27.55;9.15;;;;;;;0.41;100.00;101432.53;4746059;30;20069;-83
2022/01/10 04:24:17;;;;;;;20.50;8.52;;;;;;;0.41;100.00;101437.72;4720842;30;20414;-82
2022/01/10 04:26:46;;;;;;;29.48;8.68;;;;;;;0.41;100.00;101440.31;4723961;30;20286;-81
2022/01/10 04:29:18;;;;;;;33.80;9.43;;;;;;;0.40;100.00;101446.31;4715249;30;20048;-82
2022/01/10 04:31:47;;;;;;;35.60;8.95;;;;;;;0.42;100.00;101451.56;4748854;30;20264;-82
2022/01/10 04:34:16;;;;;;;26.90;7.88;;;;;;;0.42;100.00;101454.16;4735828;30;20047;-83
2022/01/10 04:36:45;;;;;;;35.10;8.73;;;;;;;0.44;100.00;101455.16;4765579;30;20686;-83
2022/01/10 04:39:14;;;;;;;23.98;8.18;;;;;;;0.44;100.00;101465.53;4764989;30;20048;-81
2022/01/10 04:41:43;;;;;;;30.85;8.77;;;;;;;0.44;100.00;101475.91;4728907;30;20059;-80
2022/01/10 04:44:11;;;;;;;31.60;9.68;;;;;;;0.43;100.00;101485.38;4730611;30;20384;-82
2022/01/10 04:46:41;;;;;;;25.97;9.00;;;;;;;0.43;100.00;101489.66;4719663;30;20059;-81
2022/01/10 04:49:21;;;;;;;25.27;7.78;;;;;;;0.43;100.00;101500.03;4720159;30;20094;-81
2022/01/10 04:51:50;;;;;;;26.55;8.45;;;;;;;0.43;100.00;101503.50;4772843;29;20032;-81
2022/01/10 04:54:20;;;;;;;24.75;9.40;;;;;;;0.43;100.00;101500.03;4763723;30;20051;-81
2022/01/10 04:56:49;;;;;;;28.35;8.75;;;;;;;0.42;100.00;101508.59;4721895;30;20168;-82
2022/01/10 04:59:21;;;;;;;28.88;10.00;;;;;;;0.39;100.00;101512.81;4699315;30;20503;-83
2022/01/10 05:01:50;;;;;;;34.92;9.68;;;;;;;0.39;100.00;101520.59;4745187;30;20047;-83
2022/01/10 05:04:19;;;;;;;18.45;8.05;;;;;;;0.39;100.00;101517.13;4694064;30;20060;-81
2022/01/10 05:06:47;;;;;;;30.02;10.52;;;;;;;0.38;100.00;101515.34;4723842;30;20262;-81
2022/01/10 05:09:16;;;;;;;28.10;9.43;;;;;;;0.36;100.00;101528.22;4739023;30;20525;-80
2022/01/10 05:11:51;;;;;;;22.58;8.32;;;;;;;0.35;100.00;101529.03;4749022;30;20047;-81
2022/01/10 05:14:19;;;;;;;30.92;9.50;;;;;;;0.34;100.00;101534.13;4767937;30;20062;-81
2022/01/10 05:16:54;;;;;;;24.98;9.20;;;;;;;0.32;100.00;101549.63;4704919;30;20066;-80
2022/01/10 05:19:22;;;;;;;28.58;8.57;;;;;;;0.31;100.00;101554.72;4736288;30;20343;-80
2022/01/10 05:21:55;;;;;;;22.23;8.32;;;;;;;0.30;100.00;101559.00;4759278;30;20666;-82
2022/01/10 05:24:24;;;;;;;21.52;7.70;;;;;;;0.28;100.00;101565.78;4762394;30;20055;-80
2022/01/10 05:26:52;;;;;;;16.80;7.82;;;;;;;0.26;100.00;101570.00;4744170;30;20639;-79
2022/01/10 05:29:26;;;;;;;26.63;8.50;;;;;;;0.24;100.00;101581.97;4749247;30;20348;-81
2022/01/10 05:31:56;;;;;;;25.73;10.05;;;;;;;0.23;100.00;101579.28;4733065;30;20040;-79
2022/01/10 05:34:32;;;;;;;24.70;10.23;;;;;;;0.23;100.00;101579.28;4757624;30;20055;-80
2022/01/10 05:37:02;;;;;;;21.13;8.55;;;;;;;0.24;100.00;101588.88;4708645;30;20055;-80
2022/01/10 05:39:30;;;;;;;25.20;8.95;;;;;;;0.24;100.00;101586.28;4712264;30;20062;-80
2022/01/10 05:41:59;;;;;;;23.92;8.75;;;;;;;0.21;100.00;101586.09;4732114;30;20588;-80
2022/01/10 05:44:29;;;;;;;26.73;7.47;;;;;;;0.16;100.00;101602.28;4747841;30;20050;-80
2022/01/10 05:47:02;;;;;;;25.85;8.25;;;;;;;0.14;100.00;101600.41;4752828;30;20060;-81
2022/01/10 05:49:35;;;;;;;32.15;9.70;;;;;;;0.12;100.00;101609.81;4691885;30;20072;-81
2022/01/10 05:52:05;;;;;;;18.45;9.00;;;;;;;0.10;100.00;101612.31;4695080;30;20052;-80
2022/01/10 05:54:38;;;;;;;26.42;8.90;;;;;;;0.08;100.00;101624.28;4682830;30;20060;-81
2022/01/10 05:57:07;;;;;;;22.63;8.43;;;;;;;0.08;100.00;101628.56;4683841;30;20061;-81
2022/01/10 05:59:41;;;;;;;25.05;8.57;;;;;;;0.08;100.00;101633.75;4666969;30;20306;-82
2022/01/10 06:02:10;;;;;;;22.00;9.60;;;;;;;0.08;100.00;101636.34;4727001;30;20048;-80
2022/01/10 06:04:40;;;;;;;27.27;8.77;;;;;;;0.08;100.00;101651.91;4689893;30;20170;-81
2022/01/10 06:07:26;;;;;;;24.45;8.55;;;;;;;0.06;100.00;101658.66;4700675;30;20064;-81
2022/01/10 06:09:57;;;;;;;23.35;8.90;;;;;;;0.07;100.00;101668.25;4684911;30;20696;-80
2022/01/10 06:12:26;;;;;;;22.88;8.65;;;;;;;0.04;100.00;101668.03;4726142;30;20492;-80
2022/01/10 06:14:55;;;;;;;18.13;9.32;;;;;;;0.02;100.00;101680.03;4696734;30;20075;-81
2022/01/10 06:17:23;;;;;;;25.70;9.23;;;;;;;0.01;100.00;101686.03;4679695;30;20431;-80
2022/01/10 06:19:52;;;;;;;21.10;8.65;;;;;;;0.01;100.00;101691.22;4679484;30;20076;-79
2022/01/10 06:22:21;;;;;;;21.02;8.88;;;;;;;-0.02;100.00;101692.81;4734301;30;20052;-80
2022/01/10 06:24:50;;;;;;;29.85;8.52;;;;;;;-0.04;100.00;101702.19;4760463;30;20044;-80
2022/01/10 06:27:20;;;;;;;18.88;9.13;;;;;;;-0.07;100.00;101704.59;4722449;30;20048;-79
2022/01/10 06:29:49;;;;;;;25.08;9.05;;;;;;;-0.08;100.00;101712.28;4730731;30;20622;-80
2022/01/10 06:32:18;;;;;;;24.15;8.80;;;;;;;-0.13;100.00;101716.28;4728659;30;20052;-83
2022/01/10 06:34:47;;;;;;;22.88;8.95;;;;;;;-0.15;100.00;101723.06;4739065;30;20086;-81
2022/01/10 06:37:16;;;;;;;32.53;9.13;;;;;;;-0.17;100.00;101738.53;4728112;30;20514;-82
2022/01/10 06:39:47;;;;;;;19.23;8.15;;;;;;;-0.19;100.00;101742.69;4727096;30;20040;-81
2022/01/10 06:42:17;;;;;;;20.35;8.70;;;;;;;-0.17;100.00;101748.91;4696996;30;20538;-81
2022/01/10 06:44:47;;;;;;;21.88;9.10;;;;;;;-0.18;100.00;101752.28;4727756;30;20048;-81
2022/01/10 06:47:16;;;;;;;41.72;10.50;;;;;;;-0.16;100.00;101757.56;4711905;30;20051;-80
2022/01/10 06:49:45;;;;;;;23.98;9.48;;;;;;;-0.18;100.00;101757.47;4732742;30;20070;-80
2022/01/10 06:52:16;;;;;;;25.98;10.52;;;;;;;-0.20;100.00;101765.13;4715447;30;20422;-81
2022/01/10 06:54:48;;;;;;;26.23;9.63;;;;;;;-0.22;100.00;101765.84;4722289;30;20066;-80
2022/01/10 06:57:18;;;;;;;27.48;10.30;;;;;;;-0.23;100.00;101777.91;4738449;30;20534;-81
2022/01/10 06:59:47;;;;;;;35.70;12.80;;;;;;;-0.24;100.00;101791.66;4743117;30;20407;-81
2022/01/10 07:02:17;;;;;;;35.28;12.18;;;;;;;-0.23;100.00;101790.88;4704977;30;20052;-80
2022/01/10 07:04:47;;;;;;;24.15;9.75;;;;;;;-0.23;100.00;101795.13;4748771;30;20044;-80
2022/01/10 07:07:16;;;;;;;36.85;12.77;;;;;;;-0.23;100.00;101800.31;4724682;30;20619;-80
2022/01/10 07:09:48;;;;;;;27.65;13.50;;;;;;;-0.21;100.00;101814.25;4725735;30;20059;-80
2022/01/10 07:12:17;;;;;;;34.58;14.30;;;;;;;-0.20;100.00;101821.25;4747633;30;20048;-81
2022/01/10 07:15:01;;;;;;;31.48;14.05;;;;;;;-0.20;100.00;101821.25;4717080;30;20910;-81
2022/01/10 07:17:30;;;;;;;46.27;14.70;;;;;;;-0.20;100.00;101826.41;4735949;30;20036;-80
2022/01/10 07:19:59;;;;;;;31.70;14.13;;;;;;;-0.22;100.00;101822.84;4705068;30;20302;-83
2022/01/10 07:22:37;;;;;;;46.25;15.88;;;;;;;-0.23;100.00;101837.50;4695606;30;20043;-81
2022/01/10 07:25:07;;;;;;;31.08;13.48;;;;;;;-0.25;100.00;101839.06;4739732;30;20048;-81
2022/01/10 07:27:36;;;;;;;36.03;14.52;;;;;;;-0.24;100.00;101850.34;4722656;30;20056;-82
2022/01/10 07:30:05;;;;;;;35.90;14.55;;;;;;;-0.24;100.00;101850.34;4731084;30;20048;-81
2022/01/10 07:32:34;;;;;;;43.78;15.57;;;;;;;-0.25;100.00;101858.91;4726397;30;20542;-81
2022/01/10 07:35:02;;;;;;;37.95;15.50;;;;;;;-0.25;100.00;101870.16;4728316;30;20063;-82
2022/01/10 07:37:31;;;;;;;40.10;14.30;;;;;;;-0.24;100.00;101878.84;4712484;30;20050;-82
2022/01/10 07:39:59;;;;;;;30.67;14.23;;;;;;;-0.25;100.00;101877.91;4738068;30;20544;-81
2022/01/10 07:42:28;;;;;;;32.65;14.20;;;;;;;-0.23;100.00;101890.97;4720053;30;20063;-81
2022/01/10 07:45:11;;;;;;;33.28;13.82;;;;;;;-0.26;100.00;101880.44;4708325;30;20422;-81
2022/01/10 07:47:40;;;;;;;37.45;15.20;;;;;;;-0.26;100.00;101888.22;4724246;30;20189;-81
2022/01/10 07:50:09;;;;;;;24.85;14.00;;;;;;;-0.29;100.00;101896.66;4704004;30;20066;-81
2022/01/10 07:52:38;;;;;;;40.70;15.52;;;;;;;-0.32;100.00;101899.09;4725474;30;20434;-80
2022/01/10 07:55:07;;;;;;;55.67;18.88;;;;;;;-0.34;100.00;101905.84;4731932;30;20054;-81
2022/01/10 07:57:35;;;;;;;35.92;16.50;;;;;;;-0.35;100.00;101917.00;4709620;30;20564;-77
2022/01/10 08:00:05;;;;;;;43.53;18.00;;;;;;;-0.36;100.00;101910.00;4748790;30;20059;-80
2022/01/10 08:02:39;;;;;;;39.58;17.63;;;;;;;-0.35;100.00;101922.19;4717564;30;20051;-78
2022/01/10 08:05:09;;;;;;;37.80;16.48;;;;;;;-0.34;100.00;101924.00;4715863;30;20053;-79
2022/01/10 08:07:38;;;;;;;50.63;19.85;;;;;;;-0.33;100.00;101945.59;4722584;30;20178;-78
2022/01/10 08:10:08;;;;;;;35.85;17.25;;;;;;;-0.33;100.00;101940.41;4735520;30;20062;-79
2022/01/10 08:12:36;;;;;;;50.80;19.90;;;;;;;-0.33;100.00;101943.00;4729319;30;20051;-77
2022/01/10 08:15:06;;;;;;;42.42;19.40;;;;;;;-0.34;100.00;101948.97;4725887;30;20074;-77
2022/01/10 08:17:35;;;;;;;57.90;21.08;;;;;;;-0.34;100.00;101956.75;4729347;30;20265;-77
2022/01/10 08:20:05;;;;;;;40.63;19.60;;;;;;;-0.35;100.00;101961.03;4705556;30;20063;-79
2022/01/10 08:22:33;;;;;;;40.70;18.38;;;;;;;-0.34;100.00;101957.66;4697286;30;20066;-78
2022/01/10 08:25:09;;;;;;;44.78;18.20;;;;;;;-0.31;100.00;101955.25;4719122;30;20043;-80
2022/01/10 08:27:37;;;;;;;37.42;17.85;;;;;;;-0.29;100.00;101955.34;4751785;30;20060;-79
2022/01/10 08:30:07;;;;;;;58.67;22.52;;;;;;;-0.28;100.00;101964.94;4723416;30;20041;-81
2022/01/10 08:32:35;;;;;;;52.45;21.83;;;;;;;-0.25;100.00;101972.88;4736280;30;20181;-81
2022/01/10 08:35:05;;;;;;;59.35;25.13;;;;;;;-0.22;100.00;101967.91;4733453;30;20070;-81
2022/01/10 08:37:34;;;;;;;70.65;24.80;;;;;;;-0.21;100.00;101969.69;4736503;30;20059;-80
2022/01/10 08:40:04;;;;;;;67.50;25.85;;;;;;;-0.17;100.00;101963.00;4713832;30;20082;-82
2022/01/10 08:42:32;;;;;;;49.72;22.83;;;;;;;-0.14;100.00;101969.28;4731055;30;20039;-78
2022/01/10 08:45:01;;;;;;;51.42;22.23;;;;;;;-0.11;100.00;101969.50;4759259;30;20040;-79
2022/01/10 08:47:29;;;;;;;47.90;22.48;;;;;;;-0.08;100.00;101980.03;4699768;30;20837;-78
2022/01/10 08:49:58;;;;;;;41.13;21.13;;;;;;;-0.03;100.00;101989.03;4728577;30;20055;-79
2022/01/10 08:52:26;;;;;;;51.33;23.42;;;;;;;0.02;100.00;101998.78;4751579;30;20371;-79
2022/01/10 08:54:55;;;;;;;51.80;22.83;;;;;;;0.05;100.00;101996.41;4753309;30;20071;-80
2022/01/10 08:57:24;;;;;;;63.05;25.52;;;;;;;0.09;100.00;102003.56;4721185;30;20430;-79
2022/01/10 08:59:53;;;;;;;56.00;24.55;;;;;;;0.14;100.00;102009.94;4735784;30;20407;-79
2022/01/10 09:02:21;;;;;;;51.45;23.50;;;;;;;0.17;100.00;102004.94;4718406;30;20164;-80
2022/01/10 09:04:50;;;;;;;71.13;26.40;;;;;;;0.22;100.00;102020.81;4724224;30;20044;-81
2022/01/10 09:07:19;;;;;;;54.17;22.33;;;;;;;0.26;100.00;102025.38;4712811;30;20048;-81
2022/01/10 09:09:48;;;;;;;51.60;23.42;;;;;;;0.30;100.00;102038.66;4733748;30;20063;-79
2022/01/10 09:12:17;;;;;;;54.63;24.42;;;;;;;0.35;100.00;102039.81;4742983;30;20062;-82
2022/01/10 09:14:46;;;;;;;44.47;22.67;;;;;;;0.39;100.00;102036.63;4735542;30;20418;-79
2022/01/10 09:17:16;;;;;;;64.75;25.70;;;;;;;0.45;100.00;102053.38;4735717;30;20550;-79
2022/01/10 09:19:46;;;;;;;54.67;23.13;;;;;;;0.49;100.00;102056.28;4713143;30;20062;-80
2022/01/10 09:22:15;;;;;;;41.65;22.50;;;;;;;0.52;100.00;102051.28;4705566;30;20058;-80
2022/01/10 09:24:46;;;;;;;45.70;21.58;;;;;;;0.59;100.00;102073.31;4725561;30;20047;-80
2022/01/10 09:27:15;;;;;;;47.47;23.23;;;;;;;0.62;100.00;102068.31;4741011;30;20056;-82
2022/01/10 09:29:46;;;;;;;50.38;23.08;;;;;;;0.67;100.00;102071.22;4718992;30;20390;-80
2022/01/10 09:32:15;;;;;;;44.63;22.70;;;;;;;0.71;100.00;102081.84;4746397;30;20422;-81
2022/01/10 09:34:44;;;;;;;46.97;21.80;;;;;;;0.76;100.00;102080.47;4727733;30;20043;-79
2022/01/10 09:37:12;;;;;;;44.42;22.63;;;;;;;0.81;100.00;102087.63;4724412;30;20052;-80
2022/01/10 09:39:41;;;;;;;54.42;23.85;;;;;;;0.85;100.00;102077.56;4715850;30;20523;-79
2022/01/10 09:42:12;;;;;;;65.28;25.10;;;;;;;0.90;100.00;102098.59;4727678;30;20410;-80
2022/01/10 09:44:41;;;;;;;48.35;24.10;;;;;;;0.95;100.00;102110.16;4733467;30;20055;-80
2022/01/10 09:47:09;;;;;;;47.47;22.23;;;;;;;0.99;100.00;102106.94;4777359;29;20606;-80
2022/01/10 09:49:38;;;;;;;41.05;23.85;;;;;;;1.05;100.00;102117.72;4707742;30;20570;-79
2022/01/10 09:52:10;;;;;;;56.70;27.08;;;;;;;1.11;100.00;102118.06;4755089;29;20541;-80
2022/01/10 09:54:38;;;;;;;55.33;26.65;;;;;;;1.17;100.00;102115.88;4714319;30;20422;-80
2022/01/10 09:57:07;;;;;;;56.78;25.52;;;;;;;1.23;100.00;102127.44;4757068;30;20427;-80
2022/01/10 09:59:36;;;;;;;64.35;27.52;;;;;;;1.29;100.00;102135.63;4728896;30;20052;-79
2022/01/10 10:02:05;;;;;;;49.35;26.05;;;;;;;1.34;100.00;102140.28;4747278;30;20067;-80
2022/01/10 10:04:37;;;;;;;56.55;27.25;;;;;;;1.42;100.00;102143.34;4747499;30;20718;-80
2022/01/10 10:07:07;;;;;;;64.80;27.35;;;;;;;1.47;100.00;102147.09;4734051;30;20052;-80
2022/01/10 10:09:36;;;;;;;57.03;27.02;;;;;;;1.54;100.00;102154.47;4729577;30;21956;-80
2022/01/10 10:12:04;;;;;;;55.78;27.23;;;;;;;1.61;100.00;102155.75;4748449;30;20504;-80
2022/01/10 10:14:33;;;;;;;52.42;26.75;;;;;;;1.68;100.00;102162.22;4719155;30;20269;-79
2022/01/10 10:17:11;;;;;;;52.78;29.45;;;;;;;1.73;100.00;102166.88;4736864;30;20039;-81
2022/01/10 10:19:41;;;;;;;62.78;27.02;;;;;;;1.80;100.00;102164.69;4712125;30;20285;-80
2022/01/10 10:22:14;;;;;;;51.90;27.83;;;;;;;1.85;100.00;102161.53;4742977;30;20043;-80
2022/01/10 10:24:47;;;;;;;53.97;26.83;;;;;;;1.93;100.00;102173.28;4742517;30;20062;-79
2022/01/10 10:27:21;;;;;;;62.47;28.27;;;;;;;1.98;100.00;102175.25;4745920;30;20052;-79
2022/01/10 10:30:18;;;;;;;57.50;27.35;;;;;;;2.04;100.00;102181.72;4752005;30;20056;-81
2022/01/10 10:32:49;;;;;;;48.88;26.63;;;;;;;2.09;100.00;102184.59;4751701;30;20051;-82
2022/01/10 10:35:18;;;;;;;48.42;26.75;;;;;;;2.17;100.00;102188.53;4730220;30;20110;-81
2022/01/10 10:37:48;;;;;;;51.15;25.10;;;;;;;2.24;100.00;102180.28;4754972;30;20051;-81
2022/01/10 10:40:17;;;;;;;54.65;27.80;;;;;;;2.30;100.00;102180.63;4709723;30;20540;-82
2022/01/10 10:42:46;;;;;;;51.00;27.67;;;;;;;2.38;100.00;102185.38;4764795;30;20052;-81
2022/01/10 10:45:14;;;;;;;41.78;25.13;;;;;;;2.44;100.00;102186.66;4747158;30;20660;-81
2022/01/10 10:47:45;;;;;;;49.72;25.77;;;;;;;2.50;100.00;102183.50;4737509;30;20040;-82
2022/01/10 10:50:13;;;;;;;62.28;26.05;;;;;;;2.55;100.00;102192.47;4724849;30;20051;-82
2022/01/10 10:52:42;;;;;;;50.65;25.75;;;;;;;2.58;100.00;102187.44;4723919;30;20048;-79
2022/01/10 10:55:15;;;;;;;52.70;25.70;;;;;;;2.63;100.00;102188.59;4736543;30;20052;-80
2022/01/10 10:57:45;;;;;;;50.72;23.95;;;;;;;2.66;100.00;102199.16;4738966;30;20055;-80
2022/01/10 11:00:15;;;;;;;47.70;24.30;;;;;;;2.70;100.00;102205.44;4726826;30;20059;-81
2022/01/10 11:02:44;;;;;;;35.67;18.02;;;;;;;2.72;100.00;102217.75;4738544;30;20072;-81
2022/01/10 11:05:13;;;;;;;43.75;24.42;;;;;;;2.78;100.00;102216.28;4733207;30;20067;-81
2022/01/10 11:07:41;;;;;;;43.50;23.90;;;;;;;2.84;100.00;102229.69;4726757;30;20047;-81
2022/01/10 11:10:15;;;;;;;49.70;24.80;;;;;;;2.89;100.00;102225.59;4734641;30;20043;-81
2022/01/10 11:12:52;;;;;;;44.78;24.17;;;;;;;2.95;100.00;102218.16;4735929;30;20040;-80
2022/01/10 11:15:23;;;;;;;51.45;24.85;;;;;;;2.99;100.00;102214.91;4727089;30;20153;-80
2022/01/10 11:18:10;;;;;;;44.58;23.27;;;;;;;3.05;100.00;102215.25;4756428;30;20040;-81
2022/01/10 11:20:43;;;;;;;48.72;24.17;;;;;;;3.10;100.00;102226.84;4747070;30;20482;-79
2022/01/10 11:23:31;;;;;;;47.78;24.17;;;;;;;3.17;100.00;102224.56;4740948;30;20044;-80
2022/01/10 11:26:06;;;;;;;44.17;23.88;;;;;;;3.22;100.00;102229.22;4764551;30;20055;-81
2022/01/10 11:28:45;;;;;;;46.25;24.20;;;;;;;3.26;100.00;102228.56;4721672;30;20040;-82
2022/01/10 11:31:20;;;;;;;48.60;24.00;;;;;;;3.31;100.00;102228.84;4740833;30;20047;-81
2022/01/10 11:33:50;;;;;;;42.92;21.85;;;;;;;3.34;100.00;102235.91;4735254;30;20051;-81
2022/01/10 11:36:21;;;;;;;49.97;22.47;;;;;;;3.36;100.00;102256.03;4729073;30;20047;-82
2022/01/10 11:38:56;;;;;;;44.75;21.58;;;;;;;3.40;100.00;102250.16;4743917;30;20791;-81